createdAt,value
2019-03-29T00:02:09.368Z,103113.55
2019-03-29T00:04:38.917Z,103119.36
2019-03-29T00:07:08.523Z,103121.94
2019-03-29T00:09:38.382Z,103123.66
2019-03-29T00:12:08.147Z,103123.66
2019-03-29T00:14:37.682Z,103117.23
2019-03-29T00:17:07.257Z,103113.02
2019-03-29T00:19:36.822Z,103109.55
2019-03-29T00:22:06.469Z,103115.98
2019-03-29T00:24:36.284Z,103117.36
2019-03-29T00:27:05.823Z,103107.97
2019-03-29T00:29:35.502Z,103104.52
2019-03-29T00:32:05.985Z,103106.12
2019-03-29T00:34:38.566Z,103097.58
2019-03-29T00:37:08.319Z,103105.12
2019-03-29T00:39:38.658Z,103105.07
2019-03-29T00:42:08.545Z,103099.30
2019-03-29T00:44:38.223Z,103104.59
2019-03-29T00:47:07.859Z,103103.51
2019-03-29T00:49:37.469Z,103091.64
2019-03-29T00:52:07.130Z,103089.55
2019-03-29T00:54:36.926Z,103094.37
2019-03-29T00:57:06.624Z,103089.78
2019-03-29T00:59:36.274Z,103090.41
2019-03-29T01:02:06.128Z,103087.69
2019-03-29T01:04:35.737Z,103093.10
2019-03-29T01:07:05.564Z,103091.97
2019-03-29T01:09:35.252Z,103084.77
2019-03-29T01:12:04.912Z,103088.23
2019-03-29T01:14:34.483Z,103084.67
2019-03-29T01:17:04.111Z,103090.16
2019-03-29T01:19:34.007Z,103083.98
2019-03-29T01:22:03.646Z,103076.92
2019-03-29T01:24:33.662Z,103081.13
2019-03-29T01:27:03.252Z,103078.77
2019-03-29T01:29:32.877Z,103076.90
2019-03-29T01:32:03.733Z,103080.87
2019-03-29T01:34:33.272Z,103069.14
2019-03-29T01:37:06.110Z,103071.86
2019-03-29T01:39:35.699Z,103071.11
2019-03-29T01:42:05.368Z,103070.36
2019-03-29T01:44:35.435Z,103069.36
2019-03-29T01:47:05.667Z,103065.05
2019-03-29T01:49:35.452Z,103065.42
2019-03-29T01:52:05.190Z,103065.55
2019-03-29T01:54:34.890Z,103061.84
2019-03-29T01:57:04.548Z,103057.75
2019-03-29T01:59:34.111Z,103058.13
2019-03-29T02:02:03.630Z,103058.88
2019-03-29T02:04:34.981Z,103055.03
2019-03-29T02:07:05.389Z,103054.77
2019-03-29T02:09:35.102Z,103057.88
2019-03-29T02:12:05.225Z,103051.08
2019-03-29T02:14:36.567Z,103047.37
2019-03-29T02:17:06.238Z,103047.61
2019-03-29T02:19:35.963Z,103044.52
2019-03-29T02:22:06.254Z,103043.05
2019-03-29T02:24:35.812Z,103047.22
2019-03-29T02:27:05.486Z,103045.25
2019-03-29T02:29:35.103Z,103038.45
2019-03-29T02:32:04.892Z,103037.23
2019-03-29T02:34:34.558Z,103039.32
2019-03-29T02:37:04.331Z,103040.56
2019-03-29T02:39:34.413Z,103034.39
2019-03-29T02:42:24.446Z,103036.06
2019-03-29T02:44:53.980Z,103037.17
2019-03-29T02:47:25.239Z,103037.41
2019-03-29T02:49:54.876Z,103045.43
2019-03-29T02:52:24.414Z,103032.97
2019-03-29T02:54:54.061Z,103034.13
2019-03-29T02:57:23.870Z,103030.92
2019-03-29T02:59:53.761Z,103035.12
2019-03-29T03:02:26.253Z,103036.23
2019-03-29T03:04:56.036Z,103040.19
2019-03-29T03:07:25.928Z,103038.95
2019-03-29T03:09:55.661Z,103040.18
2019-03-29T03:12:25.464Z,103036.36
2019-03-29T03:14:55.063Z,103031.98
2019-03-29T03:17:24.934Z,103032.33
2019-03-29T03:19:54.721Z,103023.13
2019-03-29T03:22:24.388Z,103022.95
2019-03-29T03:24:54.075Z,103017.02
2019-03-29T03:27:24.095Z,103026.79
2019-03-29T03:29:53.828Z,103021.70
2019-03-29T03:32:23.579Z,103027.16
2019-03-29T03:34:54.957Z,103026.30
2019-03-29T03:37:24.629Z,103021.22
2019-03-29T03:39:54.176Z,103028.39
2019-03-29T03:42:23.842Z,103030.30
2019-03-29T03:44:53.458Z,103033.63
2019-03-29T03:47:23.164Z,103032.64
2019-03-29T03:49:53.417Z,103033.84
2019-03-29T03:52:23.447Z,103036.52
2019-03-29T03:54:53.202Z,103028.70
2019-03-29T03:57:24.368Z,103028.84
2019-03-29T03:59:56.083Z,103028.12
2019-03-29T04:02:26.062Z,103026.15
2019-03-29T04:04:55.871Z,103024.66
2019-03-29T04:07:25.504Z,103022.46
2019-03-29T04:09:55.701Z,103026.36
2019-03-29T04:12:25.305Z,103030.73
2019-03-29T04:14:54.967Z,103023.43
2019-03-29T04:17:24.535Z,103016.28
2019-03-29T04:19:54.142Z,103014.48
2019-03-29T04:22:23.731Z,103015.09
2019-03-29T04:24:53.271Z,103016.70
2019-03-29T04:27:24.527Z,103007.06
2019-03-29T04:29:54.153Z,103010.52
2019-03-29T04:32:23.959Z,103013.20
2019-03-29T04:34:53.668Z,103015.66
2019-03-29T04:37:23.278Z,103015.17
2019-03-29T04:40:06.210Z,103018.19
2019-03-29T04:42:24.165Z,103025.11
2019-03-29T04:44:54.373Z,103025.05
2019-03-29T04:47:23.923Z,103017.97
2019-03-29T04:49:53.537Z,103026.30
2019-03-29T04:52:23.064Z,103026.13
2019-03-29T04:54:52.772Z,103029.34
2019-03-29T04:57:22.372Z,103028.36
2019-03-29T04:59:52.276Z,103037.41
2019-03-29T05:02:22.200Z,103037.77
2019-03-29T05:04:51.918Z,103033.34
2019-03-29T05:07:21.524Z,103026.45
2019-03-29T05:09:51.077Z,103034.94
2019-03-29T05:12:20.949Z,103030.97
2019-03-29T05:14:50.634Z,103033.05
2019-03-29T05:17:21.292Z,103036.41
2019-03-29T05:19:50.876Z,103035.94
2019-03-29T05:22:20.478Z,103039.44
2019-03-29T05:24:50.629Z,103034.19
2019-03-29T05:27:20.171Z,103038.20
2019-03-29T05:29:50.160Z,103036.98
2019-03-29T05:32:19.851Z,103037.97
2019-03-29T05:34:51.107Z,103028.25
2019-03-29T05:37:20.882Z,103030.34
2019-03-29T05:39:50.479Z,103030.62
2019-03-29T05:42:20.109Z,103037.28
2019-03-29T05:44:49.683Z,103035.61
2019-03-29T05:47:20.015Z,103035.50
2019-03-29T05:49:49.694Z,103034.51
2019-03-29T05:52:19.315Z,103032.28
2019-03-29T05:54:48.996Z,103033.63
2019-03-29T05:57:18.692Z,103033.39
2019-03-29T05:59:48.306Z,103035.74
2019-03-29T06:02:17.835Z,103025.23
2019-03-29T06:04:47.550Z,103024.58
2019-03-29T06:07:17.405Z,103023.83
2019-03-29T06:09:48.572Z,103023.50
2019-03-29T06:12:18.236Z,103021.53
2019-03-29T06:14:47.847Z,103020.91
2019-03-29T06:17:18.577Z,103020.29
2019-03-29T06:19:48.418Z,103018.06
2019-03-29T06:22:18.174Z,103014.34
2019-03-29T06:24:47.703Z,103008.28
2019-03-29T06:27:17.359Z,103018.89
2019-03-29T06:29:46.912Z,103015.78
2019-03-29T06:32:16.517Z,103019.24
2019-03-29T06:34:46.127Z,103019.98
2019-03-29T06:37:18.294Z,103013.82
2019-03-29T06:39:49.375Z,103019.41
2019-03-29T06:42:19.253Z,103015.22
2019-03-29T06:44:48.983Z,103014.47
2019-03-29T06:47:18.603Z,103013.73
2019-03-29T06:49:48.253Z,103018.05
2019-03-29T06:52:17.877Z,103003.32
2019-03-29T06:54:47.590Z,103002.84
2019-03-29T06:57:17.233Z,103000.98
2019-03-29T06:59:46.813Z,103006.17
2019-03-29T07:02:16.409Z,103008.23
2019-03-29T07:04:46.175Z,102999.63
2019-03-29T07:07:15.748Z,102998.40
2019-03-29T07:09:45.311Z,103002.48
2019-03-29T07:12:14.932Z,102999.98
2019-03-29T07:14:44.563Z,102999.36
2019-03-29T07:17:14.155Z,103000.62
2019-03-29T07:19:43.715Z,103003.22
2019-03-29T07:22:13.413Z,102997.53
2019-03-29T07:24:42.973Z,103002.63
2019-03-29T07:27:13.928Z,102994.95
2019-03-29T07:29:43.463Z,102991.45
2019-03-29T07:32:13.048Z,102994.41
2019-03-29T07:34:42.968Z,102996.73
2019-03-29T07:37:12.655Z,102994.47
2019-03-29T07:39:42.385Z,102991.21
2019-03-29T07:42:11.984Z,102985.68
2019-03-29T07:44:41.586Z,102984.73
2019-03-29T07:47:11.335Z,102977.45
2019-03-29T07:49:41.574Z,102980.29
2019-03-29T07:52:11.210Z,102978.30
2019-03-29T07:54:41.001Z,102979.79
2019-03-29T07:57:11.308Z,102966.58
2019-03-29T07:59:41.015Z,102971.94
2019-03-29T08:02:10.541Z,102968.74
2019-03-29T08:04:40.205Z,102962.50
2019-03-29T08:07:09.880Z,102964.45
2019-03-29T08:09:39.587Z,102966.56
2019-03-29T08:12:09.347Z,102963.38
2019-03-29T08:14:39.108Z,102958.72
2019-03-29T08:17:08.750Z,102961.12
2019-03-29T08:19:38.341Z,102961.45
2019-03-29T08:22:08.137Z,102951.06
2019-03-29T08:24:37.808Z,102957.05
2019-03-29T08:27:07.453Z,102952.06
2019-03-29T08:29:37.186Z,102957.08
2019-03-29T08:32:06.949Z,102948.88
2019-03-29T08:34:38.586Z,102953.09
2019-03-29T08:37:08.324Z,102939.94
2019-03-29T08:39:37.994Z,102941.70
2019-03-29T08:42:07.578Z,102945.91
2019-03-29T08:44:37.100Z,102941.11
2019-03-29T08:47:06.644Z,102942.55
2019-03-29T08:49:36.429Z,102940.05
2019-03-29T08:52:06.661Z,102943.55
2019-03-29T08:54:39.620Z,102940.12
2019-03-29T08:57:10.721Z,102939.73
2019-03-29T08:59:40.861Z,102946.66
2019-03-29T09:02:10.633Z,102944.38
2019-03-29T09:04:40.418Z,102934.87
2019-03-29T09:07:10.015Z,102935.75
2019-03-29T09:09:39.779Z,102937.86
2019-03-29T09:12:14.655Z,102937.11
2019-03-29T09:14:41.193Z,102929.16
2019-03-29T09:17:10.803Z,102931.31
2019-03-29T09:19:40.757Z,102929.81
2019-03-29T09:22:12.230Z,102928.88
2019-03-29T09:24:41.851Z,102927.87
2019-03-29T09:27:13.133Z,102923.89
2019-03-29T09:29:42.904Z,102920.86
2019-03-29T09:32:12.698Z,102917.64
2019-03-29T09:34:43.719Z,102911.95
2019-03-29T09:37:13.482Z,102904.95
2019-03-29T09:39:43.244Z,102906.21
2019-03-29T09:42:12.937Z,102905.12
2019-03-29T09:44:45.168Z,102904.16
2019-03-29T09:47:14.780Z,102902.03
2019-03-29T09:49:45.737Z,102896.66
2019-03-29T09:52:15.425Z,102888.62
2019-03-29T09:54:45.076Z,102892.94
2019-03-29T09:57:15.743Z,102890.70
2019-03-29T09:59:45.867Z,102900.03
2019-03-29T10:02:15.672Z,102880.70
2019-03-29T10:04:45.543Z,102887.20
2019-03-29T10:07:15.219Z,102880.45
2019-03-29T10:09:44.855Z,102884.68
2019-03-29T10:12:14.689Z,102884.14
2019-03-29T10:14:44.528Z,102887.25
2019-03-29T10:17:14.159Z,102881.26
2019-03-29T10:19:43.913Z,102875.67
2019-03-29T10:22:13.509Z,102864.31
2019-03-29T10:24:43.208Z,102864.69
2019-03-29T10:27:12.906Z,102863.00
2019-03-29T10:29:42.469Z,102856.02
2019-03-29T10:32:12.321Z,102871.34
2019-03-29T10:34:42.778Z,102852.99
2019-03-29T10:37:12.544Z,102846.55
2019-03-29T10:39:42.190Z,102853.33
2019-03-29T10:42:12.074Z,102842.55
2019-03-29T10:44:41.779Z,102833.06
2019-03-29T10:47:11.444Z,102841.05
2019-03-29T10:49:44.546Z,102827.67
2019-03-29T10:52:14.581Z,102823.31
2019-03-29T10:54:44.272Z,102825.99
2019-03-29T10:57:15.834Z,102821.00
2019-03-29T10:59:45.435Z,102814.08
2019-03-29T11:02:15.144Z,102811.50
2019-03-29T11:04:44.844Z,102808.31
2019-03-29T11:07:14.512Z,102807.09
2019-03-29T11:09:44.219Z,102810.70
2019-03-29T11:12:14.941Z,102796.44
2019-03-29T11:14:44.565Z,102782.18
2019-03-29T11:17:14.302Z,102785.87
2019-03-29T11:19:43.865Z,102794.87
2019-03-29T11:22:13.501Z,102790.47
2019-03-29T11:24:43.103Z,102779.59
2019-03-29T11:27:12.960Z,102769.72
2019-03-29T11:29:42.650Z,102783.23
2019-03-29T11:32:12.411Z,102767.33
2019-03-29T11:34:42.530Z,102771.77
2019-03-29T11:37:12.123Z,102758.58
2019-03-29T11:39:41.659Z,102764.98
2019-03-29T11:42:11.265Z,102763.59
2019-03-29T11:44:40.782Z,102753.62
2019-03-29T11:47:10.379Z,102761.89
2019-03-29T11:49:41.615Z,102761.47
2019-03-29T11:52:13.471Z,102754.06
2019-03-29T11:54:43.029Z,102740.88
2019-03-29T11:57:12.878Z,102745.12
2019-03-29T11:59:42.573Z,102733.03
2019-03-29T12:02:12.223Z,102733.00
2019-03-29T12:04:41.914Z,102732.00
2019-03-29T12:07:11.983Z,102724.52
2019-03-29T12:09:41.607Z,102733.21
2019-03-29T12:12:11.559Z,102730.83
2019-03-29T12:14:41.280Z,102724.13
2019-03-29T12:17:10.997Z,102706.48
2019-03-29T12:19:43.779Z,102712.88
2019-03-29T12:22:13.379Z,102708.02
2019-03-29T12:24:43.018Z,102703.42
2019-03-29T12:27:12.656Z,102703.83
2019-03-29T12:29:42.559Z,102708.64
2019-03-29T12:32:12.809Z,102699.45
2019-03-29T12:34:42.814Z,102691.92
2019-03-29T12:37:13.979Z,102694.52
2019-03-29T12:39:43.606Z,102686.83
2019-03-29T12:42:13.470Z,102682.43
2019-03-29T12:44:43.305Z,102671.28
2019-03-29T12:47:13.037Z,102669.09
2019-03-29T12:49:42.880Z,102668.11
2019-03-29T12:52:14.554Z,102654.55
2019-03-29T12:54:44.397Z,102661.45
2019-03-29T12:57:14.527Z,102660.37
2019-03-29T12:59:44.615Z,102655.88
2019-03-29T13:02:14.449Z,102650.55
2019-03-29T13:04:47.098Z,102651.33
2019-03-29T13:07:16.258Z,102637.70
2019-03-29T13:09:46.231Z,102631.98
2019-03-29T13:12:16.346Z,102615.81
2019-03-29T13:14:46.416Z,102626.06
2019-03-29T13:17:16.826Z,102622.38
2019-03-29T13:19:47.221Z,102610.44
2019-03-29T13:22:16.807Z,102604.19
2019-03-29T13:24:46.436Z,102599.45
2019-03-29T13:27:16.124Z,102602.39
2019-03-29T13:29:45.890Z,102599.56
2019-03-29T13:32:15.631Z,102592.48
2019-03-29T13:34:45.196Z,102593.89
2019-03-29T13:37:14.742Z,102589.94
2019-03-29T13:39:44.379Z,102588.02
2019-03-29T13:42:14.239Z,102584.27
2019-03-29T13:44:43.836Z,102572.92
2019-03-29T13:47:13.617Z,102584.11
2019-03-29T13:49:43.225Z,102568.47
2019-03-29T13:52:12.820Z,102573.86
2019-03-29T13:54:42.541Z,102563.24
2019-03-29T13:57:12.758Z,102560.93
2019-03-29T13:59:42.533Z,102562.41
2019-03-29T14:02:12.154Z,102558.45
2019-03-29T14:04:41.985Z,102551.97
2019-03-29T14:07:11.517Z,102547.22
2019-03-29T14:09:41.197Z,102547.21
2019-03-29T14:12:10.865Z,102537.58
2019-03-29T14:14:40.470Z,102536.97
2019-03-29T14:17:10.216Z,102528.85
2019-03-29T14:19:39.994Z,102524.05
2019-03-29T14:22:09.625Z,102523.78
2019-03-29T14:24:39.227Z,102514.83
2019-03-29T14:27:09.822Z,102512.02
2019-03-29T14:29:39.468Z,102518.77
2019-03-29T14:32:09.289Z,102503.47
2019-03-29T14:34:39.006Z,102510.87
2019-03-29T14:37:08.526Z,102504.11
2019-03-29T14:39:38.172Z,102501.96
2019-03-29T14:42:08.008Z,102497.83
2019-03-29T14:44:51.466Z,102498.77
2019-03-29T14:47:09.176Z,102500.13
2019-03-29T14:49:38.914Z,102488.28
2019-03-29T14:52:08.430Z,102493.83
2019-03-29T14:54:38.142Z,102487.66
2019-03-29T14:57:07.663Z,102481.05
2019-03-29T14:59:37.198Z,102482.91
2019-03-29T15:02:06.887Z,102486.77
2019-03-29T15:04:36.693Z,102483.70
2019-03-29T15:07:06.479Z,102480.55
2019-03-29T15:09:36.809Z,102477.34
2019-03-29T15:12:07.234Z,102475.24
2019-03-29T15:14:37.206Z,102472.44
2019-03-29T15:17:06.904Z,102470.94
2019-03-29T15:19:36.532Z,102472.28
2019-03-29T15:22:06.283Z,102469.82
2019-03-29T15:24:35.895Z,102466.89
2019-03-29T15:27:05.572Z,102463.61
2019-03-29T15:29:35.121Z,102465.63
2019-03-29T15:32:04.726Z,102459.24
2019-03-29T15:34:35.714Z,102453.03
2019-03-29T15:37:05.313Z,102453.00
2019-03-29T15:39:34.988Z,102457.80
2019-03-29T15:42:04.797Z,102453.37
2019-03-29T15:44:34.404Z,102442.61
2019-03-29T15:47:04.356Z,102443.17
2019-03-29T15:49:34.213Z,102436.58
2019-03-29T15:52:04.167Z,102436.87
2019-03-29T15:54:34.223Z,102430.13
2019-03-29T15:57:04.287Z,102435.40
2019-03-29T15:59:34.641Z,102430.86
2019-03-29T16:02:04.251Z,102435.48
2019-03-29T16:04:33.892Z,102425.55
2019-03-29T16:07:03.689Z,102417.25
2019-03-29T16:09:33.379Z,102417.17
2019-03-29T16:12:03.010Z,102417.56
2019-03-29T16:14:35.704Z,102422.13
2019-03-29T16:17:05.353Z,102417.02
2019-03-29T16:19:35.218Z,102417.20
2019-03-29T16:22:06.251Z,102410.71
2019-03-29T16:24:37.363Z,102410.31
2019-03-29T16:27:06.971Z,102415.70
2019-03-29T16:29:36.675Z,102404.28
2019-03-29T16:32:06.434Z,102404.48
2019-03-29T16:34:36.104Z,102405.19
2019-03-29T16:37:05.726Z,102401.98
2019-03-29T16:39:35.767Z,102398.80
2019-03-29T16:42:05.438Z,102395.97
2019-03-29T16:44:35.607Z,102390.77
2019-03-29T16:47:05.243Z,102386.77
2019-03-29T16:49:34.858Z,102385.64
2019-03-29T16:52:04.518Z,102375.67
2019-03-29T16:54:34.286Z,102382.39
2019-03-29T16:57:03.896Z,102385.36
2019-03-29T16:59:33.546Z,102384.12
2019-03-29T17:02:03.458Z,102381.84
2019-03-29T17:04:33.200Z,102382.51
2019-03-29T17:07:02.877Z,102381.42
2019-03-29T17:09:32.624Z,102376.14
2019-03-29T17:12:02.377Z,102377.14
2019-03-29T17:14:31.984Z,102372.00
2019-03-29T17:17:01.653Z,102375.55
2019-03-29T17:19:31.251Z,102371.92
2019-03-29T17:22:00.926Z,102372.92
2019-03-29T17:24:31.023Z,102375.16
2019-03-29T17:27:00.549Z,102363.11
2019-03-29T17:29:30.086Z,102368.02
2019-03-29T17:31:59.718Z,102369.66
2019-03-29T17:34:29.342Z,102371.16
2019-03-29T17:36:58.942Z,102370.38
2019-03-29T17:39:28.811Z,102367.78
2019-03-29T17:41:58.418Z,102370.34
2019-03-29T17:44:28.149Z,102362.36
2019-03-29T17:46:58.141Z,102363.47
2019-03-29T17:49:28.074Z,102368.58
2019-03-29T17:51:58.053Z,102359.25
2019-03-29T17:54:28.173Z,102364.98
2019-03-29T17:56:57.709Z,102369.17
2019-03-29T17:59:27.471Z,102376.56
2019-03-29T18:02:08.737Z,102370.66
2019-03-29T18:04:28.627Z,102368.97
2019-03-29T18:06:58.270Z,102372.36
2019-03-29T18:09:28.943Z,102367.41
2019-03-29T18:11:58.706Z,102372.41
2019-03-29T18:14:28.575Z,102375.59
2019-03-29T18:16:58.350Z,102373.72
2019-03-29T18:19:28.659Z,102373.03
2019-03-29T18:21:58.433Z,102376.98
2019-03-29T18:24:28.103Z,102380.23
2019-03-29T18:26:58.067Z,102379.05
2019-03-29T18:29:27.695Z,102375.27
2019-03-29T18:31:58.210Z,102380.24
2019-03-29T18:34:30.171Z,102378.02
2019-03-29T18:37:01.210Z,102381.97
2019-03-29T18:39:31.680Z,102377.00
2019-03-29T18:42:01.735Z,102378.19
2019-03-29T18:44:31.963Z,102381.77
2019-03-29T18:47:03.969Z,102378.86
2019-03-29T18:49:33.701Z,102376.48
2019-03-29T18:52:03.302Z,102374.92
2019-03-29T18:54:32.930Z,102373.91
2019-03-29T18:57:02.607Z,102375.57
2019-03-29T18:59:32.201Z,102377.30
2019-03-29T19:02:01.922Z,102375.94
2019-03-29T19:04:31.618Z,102378.78
2019-03-29T19:07:01.217Z,102377.38
2019-03-29T19:09:34.202Z,102382.66
2019-03-29T19:12:03.855Z,102383.37
2019-03-29T19:14:33.581Z,102380.26
2019-03-29T19:17:04.828Z,102380.62
2019-03-29T19:19:34.611Z,102375.80
2019-03-29T19:22:04.377Z,102379.20
2019-03-29T19:24:35.151Z,102374.63
2019-03-29T19:27:04.908Z,102375.63
2019-03-29T19:29:34.754Z,102381.06
2019-03-29T19:32:05.414Z,102375.18
2019-03-29T19:34:35.111Z,102377.19
2019-03-29T19:37:04.939Z,102380.92
2019-03-29T19:39:34.552Z,102378.17
2019-03-29T19:42:04.383Z,102377.58
2019-03-29T19:44:34.098Z,102373.76
2019-03-29T19:47:13.229Z,102380.10
2019-03-29T19:49:37.071Z,102380.30
2019-03-29T19:52:07.126Z,102378.47
2019-03-29T19:54:36.886Z,102376.27
2019-03-29T19:57:07.754Z,102378.09
2019-03-29T19:59:37.522Z,102374.81
2019-03-29T20:02:07.391Z,102376.73
2019-03-29T20:04:37.355Z,102375.87
2019-03-29T20:07:07.057Z,102374.86
2019-03-29T20:09:36.970Z,102373.95
2019-03-29T20:12:09.715Z,102378.08
2019-03-29T20:14:39.888Z,102382.47
2019-03-29T20:17:10.196Z,102373.88
2019-03-29T20:19:39.893Z,102371.39
2019-03-29T20:22:09.728Z,102370.48
2019-03-29T20:24:39.480Z,102370.09
2019-03-29T20:27:09.146Z,102369.17
2019-03-29T20:29:38.804Z,102364.73
2019-03-29T20:32:10.185Z,102364.38
2019-03-29T20:34:40.024Z,102357.71
2019-03-29T20:37:10.291Z,102363.03
2019-03-29T20:39:40.110Z,102364.38
2019-03-29T20:42:09.706Z,102359.30
2019-03-29T20:44:39.857Z,102356.44
2019-03-29T20:47:12.776Z,102358.75
2019-03-29T20:49:42.399Z,102356.39
2019-03-29T20:52:12.086Z,102354.17
2019-03-29T20:54:42.106Z,102356.53
2019-03-29T20:57:11.679Z,102355.89
2019-03-29T20:59:41.532Z,102350.16
2019-03-29T21:02:11.279Z,102351.38
2019-03-29T21:04:41.145Z,102352.31
2019-03-29T21:07:11.351Z,102359.23
2019-03-29T21:09:41.435Z,102360.99
2019-03-29T21:12:11.013Z,102363.16
2019-03-29T21:14:41.327Z,102354.41
2019-03-29T21:17:11.348Z,102359.16
2019-03-29T21:19:41.694Z,102355.46
2019-03-29T21:22:11.533Z,102351.66
2019-03-29T21:24:41.326Z,102355.11
2019-03-29T21:27:11.302Z,102359.22
2019-03-29T21:29:41.562Z,102352.61
2019-03-29T21:32:14.520Z,102358.32
2019-03-29T21:34:44.327Z,102352.88
2019-03-29T21:37:13.930Z,102345.69
2019-03-29T21:39:43.840Z,102343.52
2019-03-29T21:42:13.755Z,102338.48
2019-03-29T21:44:45.208Z,102343.23
2019-03-29T21:47:15.943Z,102336.59
2019-03-29T21:49:45.644Z,102342.52
2019-03-29T21:52:15.377Z,102334.19
2019-03-29T21:54:49.530Z,102335.97
2019-03-29T21:57:19.365Z,102336.79
2019-03-29T21:59:49.120Z,102335.39
2019-03-29T22:02:21.487Z,102333.48
2019-03-29T22:04:50.705Z,102326.08
2019-03-29T22:07:20.299Z,102328.69
2019-03-29T22:09:49.917Z,102330.97
2019-03-29T22:12:19.596Z,102334.17
2019-03-29T22:14:49.215Z,102329.64
2019-03-29T22:17:19.074Z,102336.06
2019-03-29T22:19:48.752Z,102329.91
2019-03-29T22:22:18.456Z,102325.73
2019-03-29T22:24:51.315Z,102331.23
2019-03-29T22:27:21.059Z,102320.45
2019-03-29T22:29:50.731Z,102321.98
2019-03-29T22:32:20.695Z,102308.79
2019-03-29T22:34:54.919Z,102308.53
2019-03-29T22:37:24.536Z,102310.88
2019-03-29T22:39:54.486Z,102301.05
2019-03-29T22:42:24.537Z,102300.20
2019-03-29T22:44:54.200Z,102304.41
2019-03-29T22:47:23.989Z,102300.44
2019-03-29T22:49:53.865Z,102300.66
2019-03-29T22:52:23.618Z,102298.72
2019-03-29T22:54:53.536Z,102297.15
2019-03-29T22:57:26.892Z,102297.90
2019-03-29T22:59:58.319Z,102292.13
2019-03-29T23:02:28.107Z,102295.33
2019-03-29T23:04:57.712Z,102293.97
2019-03-29T23:07:27.389Z,102292.62
2019-03-29T23:09:57.048Z,102287.33
2019-03-29T23:12:26.758Z,102288.67
2019-03-29T23:14:56.413Z,102290.90
2019-03-29T23:17:26.172Z,102293.72
2019-03-29T23:19:55.927Z,102290.16
2019-03-29T23:22:25.490Z,102296.93
2019-03-29T23:24:55.181Z,102295.95
2019-03-29T23:27:24.798Z,102297.79
2019-03-29T23:29:54.346Z,102293.23
2019-03-29T23:32:24.048Z,102298.16
2019-03-29T23:34:53.778Z,102289.17
2019-03-29T23:37:23.520Z,102285.86
2019-03-29T23:39:53.158Z,102279.70
2019-03-29T23:42:22.868Z,102281.78
2019-03-29T23:44:52.530Z,102281.30
2019-03-29T23:47:22.504Z,102271.82
2019-03-29T23:49:52.111Z,102262.21
2019-03-29T23:52:21.749Z,102261.60
2019-03-29T23:54:51.334Z,102262.72
2019-03-29T23:57:25.520Z,102253.23
2019-03-29T23:59:55.080Z,102247.20
